Time;durP1;ratioP1;P1;durP2;ratioP2;P2;SDS_P1;SDS_P2;PMS_P1;PMS_P2;Temp;Humidity;BMP_temperature;BMP_pressure;BME280_temperature;BME280_humidity;BME280_pressure;Samples;Min_cycle;Max_cycle;Signal;HPM_P1;HPM_P2
2024/01/19 00:01:25;;;;;;;3.43;2.83;;;4.40;40.00;;;;;;10374730;28;20242;-75
2024/01/19 00:06:28;;;;;;;3.07;2.53;;;4.30;39.60;;;;;;10366179;28;20234;-75
2024/01/19 00:11:32;;;;;;;2.60;2.40;;;4.30;39.80;;;;;;10366449;28;20230;-75
2024/01/19 00:16:42;;;;;;;4.23;2.63;;;4.20;39.80;;;;;;10366389;28;20249;-75
2024/01/19 00:21:46;;;;;;;3.23;2.50;;;4.10;39.80;;;;;;10364718;28;20629;-75
2024/01/19 00:26:49;;;;;;;3.27;2.97;;;4.10;39.80;;;;;;10367435;28;20313;-75
2024/01/19 00:31:54;;;;;;;4.57;3.13;;;4.00;39.60;;;;;;10372450;28;20242;-76
2024/01/19 00:36:57;;;;;;;5.40;3.00;;;3.90;40.10;;;;;;10366137;28;20240;-76
2024/01/19 00:42:00;;;;;;;4.00;2.77;;;3.80;40.00;;;;;;10374100;28;20317;-76
2024/01/19 00:47:05;;;;;;;3.07;2.77;;;3.70;40.00;;;;;;10367711;28;20248;-76
2024/01/19 00:52:08;;;;;;;3.63;2.60;;;3.60;40.00;;;;;;10365748;28;20309;-76
2024/01/19 00:57:12;;;;;;;2.90;2.60;;;3.60;40.40;;;;;;10365317;28;20218;-75
2024/01/19 01:02:16;;;;;;;4.37;2.90;;;3.60;40.40;;;;;;10365591;28;20230;-76
2024/01/19 01:07:19;;;;;;;5.17;3.00;;;3.60;40.40;;;;;;10365067;28;20288;-76
2024/01/19 01:12:22;;;;;;;5.13;2.57;;;3.60;40.50;;;;;;10364731;28;20229;-76
2024/01/19 01:17:27;;;;;;;4.97;3.30;;;3.60;40.30;;;;;;10365085;28;20218;-76
2024/01/19 01:22:31;;;;;;;4.73;3.63;;;3.60;40.30;;;;;;10365081;28;20226;-76
2024/01/19 01:27:34;;;;;;;3.20;2.90;;;3.50;40.30;;;;;;10364305;28;20236;-76
2024/01/19 01:32:38;;;;;;;3.27;2.97;;;3.40;40.60;;;;;;10364091;28;20226;-76
2024/01/19 01:37:42;;;;;;;4.97;3.27;;;3.40;40.80;;;;;;10373696;28;21003;-76
2024/01/19 01:42:45;;;;;;;5.83;3.30;;;3.30;40.60;;;;;;10363994;28;20945;-76
2024/01/19 01:47:50;;;;;;;8.20;4.10;;;3.40;41.30;;;;;;10369007;28;20257;-76
2024/01/19 01:52:56;;;;;;;5.07;3.53;;;3.30;40.30;;;;;;10362766;28;20863;-76
2024/01/19 01:57:59;;;;;;;5.07;3.60;;;3.30;40.40;;;;;;10363471;28;20352;-76
2024/01/19 02:03:05;;;;;;;4.47;3.53;;;3.20;40.50;;;;;;10363136;28;20777;-76
2024/01/19 02:08:08;;;;;;;4.00;3.60;;;3.20;40.70;;;;;;10363545;28;20238;-75
2024/01/19 02:13:11;;;;;;;3.77;3.40;;;3.20;40.50;;;;;;10363559;28;20383;-76
2024/01/19 02:18:16;;;;;;;3.83;3.47;;;3.20;40.50;;;;;;10366024;28;20234;-76
2024/01/19 02:23:20;;;;;;;5.47;3.17;;;3.30;40.60;;;;;;10370769;28;20234;-76
2024/01/19 02:28:25;;;;;;;5.00;3.60;;;3.30;40.50;;;;;;10370297;28;20233;-76
2024/01/19 02:33:28;;;;;;;4.00;3.27;;;3.30;40.40;;;;;;10369693;28;20309;-76
2024/01/19 02:38:31;;;;;;;4.90;3.33;;;3.30;40.40;;;;;;10370153;28;20226;-76
2024/01/19 02:43:36;;;;;;;4.87;3.50;;;3.20;40.30;;;;;;10377865;28;20246;-76
2024/01/19 02:48:39;;;;;;;6.10;3.73;;;3.30;40.50;;;;;;10369429;28;20234;-76
2024/01/19 02:53:43;;;;;;;6.13;3.60;;;3.20;40.50;;;;;;10368907;28;20316;-76
2024/01/19 02:58:47;;;;;;;4.83;4.00;;;3.20;40.60;;;;;;10368927;28;20222;-76
2024/01/19 03:03:50;;;;;;;5.13;4.00;;;3.10;40.50;;;;;;10361968;28;20233;-76
2024/01/19 03:08:54;;;;;;;5.80;3.87;;;3.10;40.60;;;;;;10358922;28;20244;-76
2024/01/19 03:13:58;;;;;;;8.93;4.90;;;3.00;40.60;;;;;;10366524;28;20234;-77
2024/01/19 03:19:05;;;;;;;6.63;4.70;;;2.90;40.70;;;;;;10367088;28;20230;-77
2024/01/19 03:24:08;;;;;;;4.87;4.37;;;2.90;40.90;;;;;;10367417;28;20234;-77
2024/01/19 03:29:13;;;;;;;4.77;4.07;;;2.90;41.00;;;;;;10367544;28;20234;-77
2024/01/19 03:34:16;;;;;;;5.87;4.93;;;2.90;41.00;;;;;;10366773;28;20764;-77
2024/01/19 03:39:19;;;;;;;5.07;4.37;;;2.90;41.00;;;;;;10367357;28;20234;-77
2024/01/19 03:44:24;;;;;;;5.47;4.97;;;3.00;41.10;;;;;;10367448;28;20241;-77
2024/01/19 03:49:27;;;;;;;7.07;5.60;;;3.00;41.10;;;;;;10366950;28;20238;-77
2024/01/19 03:54:33;;;;;;;7.50;5.30;;;3.20;41.00;;;;;;10364023;28;20253;-77
2024/01/19 03:59:38;;;;;;;5.53;5.03;;;3.00;40.80;;;;;;10370014;28;20222;-77
2024/01/19 04:04:41;;;;;;;7.57;5.47;;;3.00;40.80;;;;;;10366644;28;20231;-77
2024/01/19 04:09:44;;;;;;;6.00;5.37;;;3.10;41.20;;;;;;10365693;28;20319;-77
2024/01/19 04:14:49;;;;;;;7.43;5.67;;;3.00;41.10;;;;;;10366152;28;20612;-77
2024/01/19 04:19:52;;;;;;;7.57;5.80;;;3.00;41.10;;;;;;10355647;28;20696;-77
2024/01/19 04:24:55;;;;;;;7.37;5.67;;;3.10;41.20;;;;;;10365735;28;20317;-78
2024/01/19 04:30:00;;;;;;;7.70;5.40;;;3.00;41.00;;;;;;10365394;28;20237;-77
2024/01/19 04:35:04;;;;;;;7.37;6.10;;;2.90;41.00;;;;;;10364868;28;20231;-77
2024/01/19 04:40:08;;;;;;;6.53;4.90;;;2.90;41.00;;;;;;10354682;28;20230;-77
2024/01/19 04:45:13;;;;;;;5.57;5.07;;;2.90;41.00;;;;;;10365306;28;20226;-77
2024/01/19 04:50:16;;;;;;;6.07;4.53;;;2.90;41.00;;;;;;10365029;28;20261;-77
2024/01/19 04:55:19;;;;;;;5.47;4.83;;;2.90;41.00;;;;;;10364567;28;20260;-77
2024/01/19 05:00:24;;;;;;;5.30;4.80;;;2.90;41.00;;;;;;10364853;28;20238;-77
2024/01/19 05:05:27;;;;;;;5.43;4.70;;;2.90;41.00;;;;;;10364832;28;20313;-77
2024/01/19 05:10:31;;;;;;;5.27;4.77;;;2.90;41.00;;;;;;10364153;28;20992;-77
2024/01/19 05:15:36;;;;;;;6.93;5.17;;;2.90;40.80;;;;;;10363777;28;20254;-76
2024/01/19 05:20:39;;;;;;;5.33;4.60;;;2.90;40.80;;;;;;10363955;28;20218;-77
2024/01/19 05:25:42;;;;;;;5.60;4.60;;;2.90;40.90;;;;;;10363265;28;20908;-77
2024/01/19 05:30:48;;;;;;;8.80;6.20;;;2.90;41.00;;;;;;10363787;28;20815;-77
2024/01/19 05:35:51;;;;;;;7.83;5.93;;;3.00;41.10;;;;;;10361456;28;20236;-77
2024/01/19 05:40:56;;;;;;;5.97;5.27;;;3.00;41.10;;;;;;10359987;28;20237;-77
2024/01/19 05:46:00;;;;;;;6.13;5.03;;;3.20;41.20;;;;;;10364596;28;20808;-77
2024/01/19 05:51:03;;;;;;;6.67;5.27;;;3.10;40.90;;;;;;10361488;28;20229;-79
2024/01/19 05:56:07;;;;;;;6.23;5.57;;;3.10;40.80;;;;;;10369605;28;20226;-77
2024/01/19 06:01:12;;;;;;;6.37;5.63;;;3.10;40.90;;;;;;10366214;28;20231;-78
2024/01/19 06:06:15;;;;;;;7.47;6.17;;;3.20;40.90;;;;;;10361826;28;20664;-79
2024/01/19 06:11:18;;;;;;;7.37;6.17;;;3.20;40.80;;;;;;10362955;28;20280;-79
2024/01/19 06:16:23;;;;;;;7.37;6.03;;;3.20;40.80;;;;;;10367472;28;20713;-77
2024/01/19 06:21:27;;;;;;;6.00;5.40;;;3.30;40.90;;;;;;10357627;28;20231;-78
2024/01/19 06:26:32;;;;;;;7.20;5.90;;;3.20;41.20;;;;;;10359211;28;20648;-78
2024/01/19 06:31:44;;;;;;;6.80;5.77;;;3.20;41.10;;;;;;10357114;28;20695;-77
2024/01/19 06:36:47;;;;;;;8.27;6.23;;;3.20;41.00;;;;;;10364481;28;20310;-77
2024/01/19 06:41:50;;;;;;;7.00;6.27;;;3.20;41.00;;;;;;10363374;28;20332;-77
2024/01/19 06:46:55;;;;;;;8.40;7.50;;;3.20;40.70;;;;;;10360420;28;20254;-77
2024/01/19 06:51:59;;;;;;;10.17;7.33;;;3.10;40.80;;;;;;10366398;28;20230;-77
2024/01/19 06:57:02;;;;;;;7.87;7.07;;;3.10;40.80;;;;;;10363546;28;20237;-77
2024/01/19 07:02:07;;;;;;;9.73;8.30;;;3.10;40.80;;;;;;10367124;28;20332;-76
2024/01/19 07:07:10;;;;;;;9.07;8.00;;;3.00;40.90;;;;;;10363482;28;20234;-77
2024/01/19 07:12:16;;;;;;;8.70;7.60;;;3.00;41.00;;;;;;10362782;28;20241;-77
2024/01/19 07:17:21;;;;;;;11.57;7.93;;;3.10;41.10;;;;;;10363816;28;20788;-77
2024/01/19 07:22:24;;;;;;;11.20;8.00;;;2.90;41.00;;;;;;10360630;28;20226;-77
2024/01/19 07:27:27;;;;;;;8.13;7.37;;;2.90;41.00;;;;;;10360645;28;20227;-77
2024/01/19 07:32:32;;;;;;;9.60;8.07;;;2.90;41.00;;;;;;10363178;28;20240;-77
2024/01/19 07:37:56;;;;;;;11.37;9.13;;;2.90;41.00;;;;;;10361835;28;20628;-77
2024/01/19 07:42:59;;;;;;;10.13;8.70;;;2.80;41.00;;;;;;10358470;28;20238;-77
2024/01/19 07:48:04;;;;;;;9.33;8.43;;;2.80;40.90;;;;;;10358043;28;20250;-76
2024/01/19 07:53:08;;;;;;;9.63;8.43;;;2.80;40.90;;;;;;10361413;28;20234;-78
2024/01/19 07:58:11;;;;;;;10.57;8.67;;;2.90;41.00;;;;;;10361027;28;21012;-77
2024/01/19 08:03:16;;;;;;;11.27;9.10;;;2.90;41.00;;;;;;10363180;28;20265;-77
2024/01/19 08:08:19;;;;;;;9.87;8.73;;;2.90;41.00;;;;;;10360966;28;21556;-77
2024/01/19 08:13:22;;;;;;;13.33;11.23;;;3.00;41.10;;;;;;10354358;28;20244;-76
2024/01/19 08:18:33;;;;;;;11.03;9.83;;;3.00;41.10;;;;;;10358930;28;20233;-77
2024/01/19 08:23:40;;;;;;;11.60;9.63;;;3.00;41.10;;;;;;10360256;28;20871;-77
2024/01/19 08:28:45;;;;;;;14.30;9.60;;;3.00;41.10;;;;;;10358012;28;20234;-77
2024/01/19 08:33:50;;;;;;;13.57;10.90;;;3.00;41.10;;;;;;10354650;28;21230;-77
2024/01/19 08:38:54;;;;;;;11.37;9.53;;;3.00;41.10;;;;;;10348956;28;20649;-77
2024/01/19 08:43:58;;;;;;;10.53;9.40;;;2.90;41.00;;;;;;10355813;28;20226;-77
2024/01/19 08:49:02;;;;;;;10.67;9.57;;;3.00;41.10;;;;;;10358012;28;20234;-77
2024/01/19 08:54:06;;;;;;;11.53;10.33;;;3.00;41.20;;;;;;10358777;28;20241;-77
2024/01/19 08:59:09;;;;;;;11.10;9.90;;;3.00;41.20;;;;;;10358454;28;20704;-77
2024/01/19 09:04:14;;;;;;;11.63;10.03;;;3.10;41.20;;;;;;10354555;28;20236;-76
2024/01/19 09:09:17;;;;;;;13.13;11.77;;;3.20;41.20;;;;;;10357290;28;20316;-77
2024/01/19 09:14:22;;;;;;;14.13;11.70;;;3.10;41.20;;;;;;10355141;28;20234;-77
2024/01/19 09:19:26;;;;;;;11.80;9.87;;;3.20;41.20;;;;;;10355586;28;20345;-77
2024/01/19 09:24:30;;;;;;;12.03;10.77;;;3.20;41.30;;;;;;10357137;28;20681;-77
2024/01/19 09:29:33;;;;;;;11.90;10.70;;;3.20;41.20;;;;;;10356766;28;20789;-77
2024/01/19 09:34:37;;;;;;;11.47;10.37;;;3.30;41.40;;;;;;10354044;28;20238;-77
2024/01/19 09:39:41;;;;;;;12.77;11.43;;;3.40;41.40;;;;;;10357077;28;20230;-77
2024/01/19 09:44:59;;;;;;;13.67;11.77;;;3.40;41.40;;;;;;10358306;28;20611;-77
2024/01/19 09:50:07;;;;;;;14.00;12.03;;;3.40;41.30;;;;;;10350394;28;20230;-78
2024/01/19 09:55:11;;;;;;;13.53;11.27;;;3.40;41.10;;;;;;10355008;28;20254;-77
2024/01/19 10:00:16;;;;;;;12.17;10.87;;;3.50;41.30;;;;;;10355022;28;20237;-76
2024/01/19 10:05:22;;;;;;;11.93;10.73;;;3.40;40.90;;;;;;10356956;28;20861;-77
2024/01/19 10:10:28;;;;;;;12.30;11.00;;;3.40;41.00;;;;;;10358645;28;20229;-77
2024/01/19 10:15:32;;;;;;;13.07;10.77;;;3.40;40.70;;;;;;10350712;28;20839;-77
2024/01/19 10:20:39;;;;;;;10.67;9.57;;;3.40;40.80;;;;;;10356565;28;20310;-77
2024/01/19 10:25:42;;;;;;;10.67;9.60;;;3.50;41.00;;;;;;10354310;28;20620;-77
2024/01/19 10:30:45;;;;;;;11.77;9.70;;;3.50;40.90;;;;;;10355254;28;20267;-77
2024/01/19 10:35:50;;;;;;;11.37;9.27;;;3.60;40.60;;;;;;10357979;28;20234;-77
2024/01/19 10:40:53;;;;;;;10.57;9.47;;;3.60;40.30;;;;;;10356478;28;20234;-78
2024/01/19 10:45:56;;;;;;;11.40;10.20;;;3.60;40.20;;;;;;10363086;28;20244;-77
2024/01/19 10:51:03;;;;;;;10.90;9.80;;;3.60;40.20;;;;;;10359773;28;20616;-77
2024/01/19 10:56:07;;;;;;;10.83;9.73;;;3.60;40.10;;;;;;10358460;28;20230;-78
2024/01/19 11:01:15;;;;;;;10.13;9.07;;;3.80;40.50;;;;;;10362319;28;20226;-78
2024/01/19 11:06:20;;;;;;;10.77;9.30;;;3.70;40.20;;;;;;10362416;28;20996;-77
2024/01/19 11:11:26;;;;;;;9.97;8.97;;;3.80;40.30;;;;;;10353372;28;20312;-77
2024/01/19 11:16:35;;;;;;;10.37;9.37;;;4.10;40.30;;;;;;10352269;28;20238;-77
2024/01/19 11:21:42;;;;;;;9.80;8.80;;;4.00;39.80;;;;;;10362464;28;20725;-77
2024/01/19 11:26:50;;;;;;;10.67;8.77;;;4.10;39.50;;;;;;10360567;28;20238;-76
2024/01/19 11:31:54;;;;;;;10.87;8.83;;;4.20;39.50;;;;;;10359632;28;20771;-77
2024/01/19 11:36:58;;;;;;;10.63;9.37;;;4.20;39.50;;;;;;10362883;28;20234;-75
2024/01/19 11:42:02;;;;;;;10.57;9.17;;;4.20;39.20;;;;;;10356230;28;20230;-75
2024/01/19 11:47:05;;;;;;;9.67;8.73;;;4.20;39.00;;;;;;10341849;28;20227;-75
2024/01/19 11:52:43;;;;;;;10.97;9.83;;;4.20;39.30;;;;;;10347676;28;20234;-75
2024/01/19 11:57:46;;;;;;;13.03;8.87;;;4.20;38.40;;;;;;10347893;28;20251;-75
2024/01/19 12:02:50;;;;;;;10.67;9.13;;;4.20;39.20;;;;;;10349581;28;20230;-76
2024/01/19 12:08:02;;;;;;;11.10;9.23;;;4.30;38.80;;;;;;10347972;28;20230;-75
2024/01/19 12:13:06;;;;;;;11.13;9.93;;;4.30;38.40;;;;;;10343701;28;20223;-75
2024/01/19 12:18:09;;;;;;;10.83;9.73;;;4.40;39.20;;;;;;10346780;28;21188;-76
2024/01/19 12:23:15;;;;;;;9.97;8.93;;;4.40;39.00;;;;;;10343336;28;20276;-76
2024/01/19 12:28:18;;;;;;;11.93;10.03;;;4.50;38.90;;;;;;10346038;28;20706;-81
2024/01/19 12:33:25;;;;;;;10.47;9.47;;;4.60;39.10;;;;;;10343660;28;20706;-75
2024/01/19 12:38:29;;;;;;;10.10;9.00;;;4.60;38.90;;;;;;10341429;28;20233;-76
2024/01/19 12:43:33;;;;;;;10.13;9.23;;;4.60;38.10;;;;;;10341461;28;20230;-76
2024/01/19 12:48:37;;;;;;;11.17;9.80;;;4.70;38.20;;;;;;10338270;28;20238;-76
2024/01/19 12:53:42;;;;;;;10.17;8.83;;;4.70;38.30;;;;;;10337891;28;20230;-76
2024/01/19 12:58:45;;;;;;;10.47;9.40;;;4.70;37.80;;;;;;10345368;28;20234;-75
2024/01/19 13:03:49;;;;;;;10.30;9.27;;;4.70;37.70;;;;;;10333213;28;20289;-78
2024/01/19 13:08:54;;;;;;;10.70;9.60;;;4.60;37.40;;;;;;10340433;28;20237;-76
2024/01/19 13:14:01;;;;;;;9.27;8.37;;;4.60;37.50;;;;;;10332960;28;20936;-76
2024/01/19 13:19:07;;;;;;;8.97;8.10;;;4.60;37.30;;;;;;10328255;28;20773;-78
2024/01/19 13:24:12;;;;;;;8.63;7.83;;;4.60;37.70;;;;;;10341200;28;20314;-78
2024/01/19 13:29:15;;;;;;;8.70;7.90;;;4.60;36.90;;;;;;10355222;28;20226;-78
2024/01/19 13:34:18;;;;;;;8.30;7.50;;;4.60;37.00;;;;;;10356052;28;20234;-77
2024/01/19 13:39:23;;;;;;;11.87;9.47;;;4.60;37.70;;;;;;10358173;28;20237;-77
2024/01/19 13:44:27;;;;;;;9.07;8.17;;;4.60;37.90;;;;;;10358820;28;20272;-77
2024/01/19 13:49:30;;;;;;;9.93;8.97;;;4.70;38.00;;;;;;10350846;28;20691;-77
2024/01/19 13:54:35;;;;;;;9.77;8.60;;;4.70;37.90;;;;;;10358988;28;20230;-77
2024/01/19 13:59:38;;;;;;;8.93;8.10;;;4.80;37.60;;;;;;10354320;28;20854;-77
2024/01/19 14:04:41;;;;;;;8.87;7.97;;;4.90;37.50;;;;;;10354391;28;20773;-77
2024/01/19 14:09:46;;;;;;;10.83;9.77;;;4.90;37.70;;;;;;10355090;28;20721;-77
2024/01/19 14:14:49;;;;;;;9.27;8.37;;;4.90;36.80;;;;;;10352151;28;20281;-77
2024/01/19 14:19:53;;;;;;;10.07;8.70;;;4.90;37.00;;;;;;10360145;28;20807;-76
2024/01/19 14:24:57;;;;;;;8.77;7.90;;;4.90;36.70;;;;;;10352804;28;21215;-77
2024/01/19 14:30:07;;;;;;;8.60;7.70;;;4.80;36.60;;;;;;10358197;28;20227;-77
2024/01/19 14:35:10;;;;;;;8.27;7.33;;;4.80;35.90;;;;;;10364532;28;20240;-79
2024/01/19 14:40:16;;;;;;;8.20;7.40;;;4.70;36.30;;;;;;10371511;28;20236;-76
2024/01/19 14:45:20;;;;;;;9.70;8.60;;;4.70;36.60;;;;;;10366113;28;20234;-77
2024/01/19 14:50:25;;;;;;;8.17;7.37;;;4.60;36.40;;;;;;10373260;28;21169;-76
2024/01/19 14:55:31;;;;;;;8.30;7.50;;;4.60;36.50;;;;;;10371139;28;20689;-77
2024/01/19 15:00:35;;;;;;;8.40;7.50;;;4.60;36.50;;;;;;10363422;28;20237;-74
2024/01/19 15:05:39;;;;;;;7.97;7.17;;;4.60;37.00;;;;;;10360961;28;20237;-75
2024/01/19 15:10:43;;;;;;;7.93;7.13;;;4.60;36.40;;;;;;10364658;28;20334;-75
2024/01/19 15:15:46;;;;;;;7.80;7.00;;;4.70;36.30;;;;;;10360363;28;20226;-74
2024/01/19 15:20:50;;;;;;;8.00;7.17;;;4.70;36.60;;;;;;10362247;28;20229;-73
2024/01/19 15:25:54;;;;;;;7.03;6.37;;;4.70;36.50;;;;;;10365671;28;20234;-74
2024/01/19 15:30:58;;;;;;;7.20;6.03;;;4.70;36.60;;;;;;10366530;28;20317;-75
2024/01/19 15:36:01;;;;;;;7.90;7.03;;;4.70;36.50;;;;;;10363324;28;20226;-75
2024/01/19 15:41:06;;;;;;;6.77;6.17;;;4.70;36.60;;;;;;10363066;28;20228;-75
2024/01/19 15:46:09;;;;;;;7.07;6.47;;;4.70;36.50;;;;;;10359548;28;20674;-75
2024/01/19 15:51:21;;;;;;;8.00;6.30;;;4.70;37.30;;;;;;10347277;28;20238;-74
2024/01/19 15:56:27;;;;;;;8.47;7.57;;;4.70;35.90;;;;;;10362381;28;20232;-73
2024/01/19 16:01:39;;;;;;;8.77;7.73;;;4.70;36.60;;;;;;10361936;28;20313;-73
2024/01/19 16:06:43;;;;;;;8.80;7.97;;;4.70;36.60;;;;;;10365507;28;20233;-75
2024/01/19 16:11:48;;;;;;;8.57;7.77;;;4.70;36.60;;;;;;10365766;28;20321;-75
2024/01/19 16:16:52;;;;;;;7.97;7.23;;;4.60;36.40;;;;;;10361815;28;20238;-74
2024/01/19 16:21:56;;;;;;;8.07;7.23;;;4.60;36.50;;;;;;10361516;28;20234;-74
2024/01/19 16:27:01;;;;;;;8.50;7.50;;;4.60;36.50;;;;;;10361971;28;20257;-74
2024/01/19 16:32:06;;;;;;;9.27;7.53;;;4.60;36.50;;;;;;10361707;28;20266;-74
2024/01/19 16:37:10;;;;;;;8.60;7.57;;;4.60;36.40;;;;;;10362450;28;20230;-74
2024/01/19 16:42:14;;;;;;;8.77;7.87;;;4.50;36.40;;;;;;10364158;28;20653;-75
2024/01/19 16:47:17;;;;;;;10.87;8.77;;;4.40;36.30;;;;;;10361036;28;20790;-75
2024/01/19 16:52:21;;;;;;;8.73;7.83;;;4.40;36.30;;;;;;10361378;28;20242;-75
2024/01/19 16:57:26;;;;;;;7.57;6.80;;;4.40;36.40;;;;;;10361699;28;20280;-76
2024/01/19 17:02:29;;;;;;;6.77;6.17;;;4.40;36.30;;;;;;10364732;28;20234;-76
2024/01/19 17:07:32;;;;;;;7.63;6.93;;;4.50;36.40;;;;;;10365638;28;20263;-76
2024/01/19 17:12:40;;;;;;;7.93;7.17;;;4.50;36.40;;;;;;10365505;28;20253;-76
2024/01/19 17:17:43;;;;;;;7.73;6.87;;;4.40;36.30;;;;;;10365320;28;20249;-76
2024/01/19 17:22:46;;;;;;;7.77;6.97;;;4.40;36.30;;;;;;10365336;28;20238;-76
2024/01/19 17:27:51;;;;;;;8.53;7.73;;;4.30;36.20;;;;;;10365194;28;20258;-76
2024/01/19 17:32:56;;;;;;;12.27;10.90;;;4.30;36.20;;;;;;10365292;28;20230;-76
2024/01/19 17:37:59;;;;;;;14.03;9.07;;;4.20;36.20;;;;;;10365506;28;20229;-76
2024/01/19 17:43:06;;;;;;;9.33;8.40;;;4.10;36.50;;;;;;10362502;28;20601;-76
2024/01/19 17:48:09;;;;;;;9.93;8.93;;;4.10;36.60;;;;;;10368191;28;20229;-76
2024/01/19 17:53:12;;;;;;;11.43;9.77;;;4.10;36.80;;;;;;10372480;28;20316;-77
2024/01/19 17:58:20;;;;;;;13.07;11.30;;;4.10;37.00;;;;;;10360515;28;20313;-76
2024/01/19 18:03:24;;;;;;;13.03;10.33;;;4.00;36.40;;;;;;10343553;28;20254;-75
2024/01/19 18:08:29;;;;;;;11.67;10.47;;;4.00;36.80;;;;;;10327360;28;20226;-75
2024/01/19 18:13:34;;;;;;;12.20;10.83;;;3.90;37.00;;;;;;10335196;28;20301;-75
2024/01/19 18:18:39;;;;;;;12.97;10.33;;;3.90;36.90;;;;;;10366669;28;20249;-76
2024/01/19 18:23:42;;;;;;;14.03;12.53;;;3.90;36.80;;;;;;10367005;28;20257;-75
2024/01/19 18:28:48;;;;;;;16.20;14.17;;;3.90;36.60;;;;;;10366858;28;20231;-75
2024/01/19 18:33:51;;;;;;;13.03;11.63;;;3.60;36.50;;;;;;10369570;28;20245;-75
2024/01/19 18:38:57;;;;;;;19.27;15.77;;;3.50;36.90;;;;;;10372469;28;20226;-75
2024/01/19 18:44:01;;;;;;;18.63;13.53;;;3.50;37.00;;;;;;10372777;28;20237;-76
2024/01/19 18:49:04;;;;;;;47.87;33.13;;;3.40;36.70;;;;;;10372251;28;20234;-76
2024/01/19 18:54:09;;;;;;;28.60;22.10;;;3.30;36.70;;;;;;10371730;28;20230;-76
2024/01/19 18:59:15;;;;;;;21.60;18.70;;;3.10;36.80;;;;;;10371392;28;20261;-76
2024/01/19 19:04:18;;;;;;;66.70;53.43;;;2.90;37.60;;;;;;10371719;28;20308;-75
2024/01/19 19:09:22;;;;;;;99.30;62.47;;;2.80;37.20;;;;;;10362387;28;20238;-75
2024/01/19 19:14:27;;;;;;;104.70;65.67;;;2.80;37.50;;;;;;10363493;28;20244;-75
2024/01/19 19:19:31;;;;;;;48.57;33.10;;;2.90;37.70;;;;;;10363090;28;20234;-75
2024/01/19 19:24:37;;;;;;;41.23;27.83;;;2.90;37.50;;;;;;10364520;28;20230;-75
2024/01/19 19:29:41;;;;;;;31.70;23.50;;;3.00;37.40;;;;;;10370477;28;20260;-76
2024/01/19 19:34:45;;;;;;;24.27;18.97;;;3.00;37.40;;;;;;10369828;28;20241;-76
2024/01/19 19:39:49;;;;;;;19.53;15.70;;;3.00;37.30;;;;;;10371192;28;20241;-74
2024/01/19 19:44:55;;;;;;;20.37;15.90;;;3.00;37.10;;;;;;10370468;28;20313;-74
2024/01/19 19:49:58;;;;;;;26.97;21.97;;;2.90;36.70;;;;;;10369902;28;20230;-75
2024/01/19 19:55:03;;;;;;;22.93;20.30;;;2.70;36.70;;;;;;10364337;28;20269;-74
2024/01/19 20:00:10;;;;;;;20.60;17.43;;;2.50;36.90;;;;;;10360161;28;20297;-78
2024/01/19 20:05:15;;;;;;;21.53;16.80;;;2.30;37.00;;;;;;10363004;28;20226;-76
2024/01/19 20:10:18;;;;;;;17.77;13.87;;;2.10;37.10;;;;;;10363012;28;20288;-78
2024/01/19 20:15:23;;;;;;;18.87;12.00;;;2.00;37.50;;;;;;10356520;28;20250;-75
2024/01/19 20:20:27;;;;;;;37.23;24.13;;;2.00;37.80;;;;;;10344595;28;20231;-75
2024/01/19 20:25:31;;;;;;;24.80;18.10;;;2.00;37.70;;;;;;10348574;28;20269;-75
2024/01/19 20:30:36;;;;;;;22.37;17.10;;;2.10;37.60;;;;;;10354906;28;20277;-75
2024/01/19 20:35:39;;;;;;;25.47;18.30;;;2.10;37.50;;;;;;10346164;28;20234;-75
2024/01/19 20:40:43;;;;;;;22.10;17.07;;;2.10;37.60;;;;;;10353714;28;20238;-75
2024/01/19 20:45:48;;;;;;;20.80;16.40;;;2.10;37.80;;;;;;10353901;28;20234;-75
2024/01/19 20:50:51;;;;;;;21.20;17.40;;;2.10;37.60;;;;;;10351848;28;20234;-75
2024/01/19 20:55:54;;;;;;;24.00;17.73;;;2.10;37.40;;;;;;10355542;28;20317;-75
2024/01/19 21:00:59;;;;;;;18.73;15.23;;;2.00;37.30;;;;;;10345107;28;20226;-75
2024/01/19 21:06:02;;;;;;;15.33;12.80;;;1.80;37.40;;;;;;10349623;28;20226;-75
2024/01/19 21:11:07;;;;;;;14.23;12.20;;;1.80;37.30;;;;;;10350744;28;20222;-75
2024/01/19 21:16:13;;;;;;;14.03;12.53;;;1.90;37.50;;;;;;10346499;28;20317;-75
2024/01/19 21:21:17;;;;;;;19.03;14.93;;;1.70;37.60;;;;;;10356913;28;20281;-75
2024/01/19 21:26:23;;;;;;;36.00;27.83;;;1.70;37.50;;;;;;10357727;28;20245;-74
2024/01/19 21:31:28;;;;;;;42.60;32.73;;;1.70;37.20;;;;;;10358089;28;20253;-74
2024/01/19 21:36:34;;;;;;;34.23;28.13;;;1.70;37.40;;;;;;10352740;28;20791;-74
2024/01/19 21:41:38;;;;;;;27.13;22.00;;;1.60;37.60;;;;;;10351979;28;20280;-75
2024/01/19 21:46:43;;;;;;;21.13;17.63;;;1.60;37.60;;;;;;10350380;28;20234;-75
2024/01/19 21:51:46;;;;;;;20.53;16.83;;;1.60;37.50;;;;;;10350772;28;20241;-74
2024/01/19 21:56:50;;;;;;;21.37;15.07;;;1.60;37.50;;;;;;10350746;28;20300;-75
2024/01/19 22:01:56;;;;;;;17.13;13.10;;;1.70;37.40;;;;;;10349122;28;20230;-75
2024/01/19 22:06:59;;;;;;;14.77;12.07;;;1.70;37.40;;;;;;10346444;28;21002;-74
2024/01/19 22:12:02;;;;;;;14.67;12.23;;;1.80;38.00;;;;;;10350950;28;20242;-75
2024/01/19 22:17:07;;;;;;;14.03;12.27;;;1.60;37.00;;;;;;10352179;28;20330;-75
2024/01/19 22:22:10;;;;;;;35.93;30.27;;;1.50;37.00;;;;;;10351284;28;20694;-74
2024/01/19 22:27:14;;;;;;;30.50;25.43;;;1.40;37.10;;;;;;10347266;28;20655;-74
2024/01/19 22:32:18;;;;;;;22.90;19.67;;;1.40;37.30;;;;;;10348416;28;20349;-74
2024/01/19 22:37:22;;;;;;;19.33;15.20;;;1.50;37.50;;;;;;10352969;28;20301;-75
2024/01/19 22:42:26;;;;;;;17.13;15.20;;;1.40;37.60;;;;;;10361607;28;20240;-75
2024/01/19 22:47:30;;;;;;;15.53;12.53;;;1.40;37.60;;;;;;10357082;28;20230;-75
2024/01/19 22:52:33;;;;;;;16.70;13.17;;;1.40;37.40;;;;;;10357246;28;20709;-75
2024/01/19 22:57:37;;;;;;;13.30;11.57;;;1.40;37.30;;;;;;10362387;28;20226;-75
2024/01/19 23:02:42;;;;;;;15.00;11.83;;;1.40;37.10;;;;;;10364845;28;20226;-74
2024/01/19 23:07:45;;;;;;;15.20;12.07;;;1.20;37.00;;;;;;10360801;28;20249;-74
2024/01/19 23:12:49;;;;;;;12.87;11.47;;;1.10;37.30;;;;;;10357984;28;20237;-75
2024/01/19 23:17:53;;;;;;;14.43;11.63;;;1.00;37.50;;;;;;10362857;28;20242;-74
2024/01/19 23:22:57;;;;;;;14.10;10.37;;;1.00;37.60;;;;;;10361230;28;20257;-74
2024/01/19 23:28:01;;;;;;;12.47;10.83;;;1.00;37.60;;;;;;10359691;28;20301;-75
2024/01/19 23:33:06;;;;;;;15.53;11.33;;;1.10;37.70;;;;;;10356262;28;20318;-75
2024/01/19 23:38:10;;;;;;;12.80;10.30;;;1.10;37.90;;;;;;10359075;28;20226;-74
2024/01/19 23:43:14;;;;;;;13.30;11.33;;;1.20;38.50;;;;;;10356489;28;20240;-75
2024/01/19 23:48:20;;;;;;;13.10;11.60;;;1.20;37.60;;;;;;10360176;28;20233;-74
2024/01/19 23:53:23;;;;;;;12.30;10.47;;;1.20;37.50;;;;;;10350256;28;20298;-74
2024/01/19 23:58:27;;;;;;;11.93;10.13;;;1.10;37.50;;;;;;10356121;28;20226;-75
